sensor_id;sensor_type;location;lat;lon;timestamp;temperature;humidity
11762;DHT22;5938;47.098;15.474;2023-03-18T00:00:08;-0.20;98.90
11762;DHT22;5938;47.098;15.474;2023-03-18T00:04:12;-0.30;98.80
11762;DHT22;5938;47.098;15.474;2023-03-18T00:08:17;-0.30;99.20
11762;DHT22;5938;47.098;15.474;2023-03-18T00:12:20;-0.40;99.60
11762;DHT22;5938;47.098;15.474;2023-03-18T00:16:24;-0.40;99.40
11762;DHT22;5938;47.098;15.474;2023-03-18T00:20:28;-0.40;99.80
11762;DHT22;5938;47.098;15.474;2023-03-18T00:24:42;-0.40;99.80
11762;DHT22;5938;47.098;15.474;2023-03-18T00:28:46;-0.60;99.90
11762;DHT22;5938;47.098;15.474;2023-03-18T00:32:49;-0.60;99.90
11762;DHT22;5938;47.098;15.474;2023-03-18T00:36:54;-0.60;99.90
11762;DHT22;5938;47.098;15.474;2023-03-18T00:41:06;-0.60;99.90
11762;DHT22;5938;47.098;15.474;2023-03-18T00:45:14;-0.60;99.90
11762;DHT22;5938;47.098;15.474;2023-03-18T00:49:18;-0.70;99.90
11762;DHT22;5938;47.098;15.474;2023-03-18T00:53:22;-0.70;99.90
11762;DHT22;5938;47.098;15.474;2023-03-18T00:57:29;-0.70;99.90
11762;DHT22;5938;47.098;15.474;2023-03-18T01:01:33;-0.70;99.90
11762;DHT22;5938;47.098;15.474;2023-03-18T01:05:36;-0.70;99.90
11762;DHT22;5938;47.098;15.474;2023-03-18T01:09:40;-0.70;99.90
11762;DHT22;5938;47.098;15.474;2023-03-18T01:13:45;-0.70;99.90
11762;DHT22;5938;47.098;15.474;2023-03-18T01:17:50;-0.80;99.90
11762;DHT22;5938;47.098;15.474;2023-03-18T01:21:57;-0.80;99.90
11762;DHT22;5938;47.098;15.474;2023-03-18T01:26:01;-0.90;99.90
11762;DHT22;5938;47.098;15.474;2023-03-18T01:30:08;-0.90;99.90
11762;DHT22;5938;47.098;15.474;2023-03-18T01:34:12;-1.00;99.90
11762;DHT22;5938;47.098;15.474;2023-03-18T01:38:17;-1.00;99.90
11762;DHT22;5938;47.098;15.474;2023-03-18T01:42:20;-1.00;99.90
11762;DHT22;5938;47.098;15.474;2023-03-18T01:46:44;-1.00;99.90
11762;DHT22;5938;47.098;15.474;2023-03-18T01:50:51;-1.10;99.90
11762;DHT22;5938;47.098;15.474;2023-03-18T01:55:00;-1.10;99.90
11762;DHT22;5938;47.098;15.474;2023-03-18T01:59:05;-1.20;99.90
11762;DHT22;5938;47.098;15.474;2023-03-18T02:03:12;-1.20;99.90
11762;DHT22;5938;47.098;15.474;2023-03-18T02:07:17;-1.20;99.90
11762;DHT22;5938;47.098;15.474;2023-03-18T02:11:22;-1.30;99.90
11762;DHT22;5938;47.098;15.474;2023-03-18T02:15:25;-1.30;99.90
11762;DHT22;5938;47.098;15.474;2023-03-18T02:19:43;-1.40;99.90
11762;DHT22;5938;47.098;15.474;2023-03-18T02:23:54;-1.40;99.90
11762;DHT22;5938;47.098;15.474;2023-03-18T02:28:04;-1.40;99.90
11762;DHT22;5938;47.098;15.474;2023-03-18T02:32:09;-1.40;99.90
11762;DHT22;5938;47.098;15.474;2023-03-18T02:36:17;-1.50;99.90
11762;DHT22;5938;47.098;15.474;2023-03-18T02:40:26;-1.50;99.90
11762;DHT22;5938;47.098;15.474;2023-03-18T02:44:33;-1.50;99.90
11762;DHT22;5938;47.098;15.474;2023-03-18T02:48:41;-1.50;99.90
11762;DHT22;5938;47.098;15.474;2023-03-18T02:52:44;-1.80;99.90
11762;DHT22;5938;47.098;15.474;2023-03-18T02:56:48;-1.60;99.90
11762;DHT22;5938;47.098;15.474;2023-03-18T03:00:54;-1.50;99.90
11762;DHT22;5938;47.098;15.474;2023-03-18T03:04:58;-1.60;99.90
11762;DHT22;5938;47.098;15.474;2023-03-18T03:09:03;-1.90;99.90
11762;DHT22;5938;47.098;15.474;2023-03-18T03:13:07;-1.60;99.90
11762;DHT22;5938;47.098;15.474;2023-03-18T03:17:12;-1.60;99.90
11762;DHT22;5938;47.098;15.474;2023-03-18T03:21:16;-1.60;99.90
11762;DHT22;5938;47.098;15.474;2023-03-18T03:25:19;-1.60;99.90
11762;DHT22;5938;47.098;15.474;2023-03-18T03:29:23;-1.70;99.90
11762;DHT22;5938;47.098;15.474;2023-03-18T03:33:28;-1.80;99.90
11762;DHT22;5938;47.098;15.474;2023-03-18T03:37:31;-1.80;99.90
11762;DHT22;5938;47.098;15.474;2023-03-18T03:41:35;-1.70;99.90
11762;DHT22;5938;47.098;15.474;2023-03-18T03:45:39;-1.80;99.90
11762;DHT22;5938;47.098;15.474;2023-03-18T03:49:44;-1.80;99.90
11762;DHT22;5938;47.098;15.474;2023-03-18T03:53:48;-1.80;99.90
11762;DHT22;5938;47.098;15.474;2023-03-18T03:57:51;-1.60;99.90
11762;DHT22;5938;47.098;15.474;2023-03-18T04:01:55;-2.10;99.90
11762;DHT22;5938;47.098;15.474;2023-03-18T04:06:00;-1.90;99.90
11762;DHT22;5938;47.098;15.474;2023-03-18T04:10:05;-1.80;99.90
11762;DHT22;5938;47.098;15.474;2023-03-18T04:14:10;-1.90;99.90
11762;DHT22;5938;47.098;15.474;2023-03-18T04:18:13;-1.80;99.90
11762;DHT22;5938;47.098;15.474;2023-03-18T04:22:19;-1.90;99.90
11762;DHT22;5938;47.098;15.474;2023-03-18T04:26:22;-1.90;99.90
11762;DHT22;5938;47.098;15.474;2023-03-18T04:30:26;-1.70;99.90
11762;DHT22;5938;47.098;15.474;2023-03-18T04:34:29;-2.00;99.90
11762;DHT22;5938;47.098;15.474;2023-03-18T04:38:34;-2.10;99.90
11762;DHT22;5938;47.098;15.474;2023-03-18T04:42:38;-2.00;99.90
11762;DHT22;5938;47.098;15.474;2023-03-18T04:46:42;-2.20;99.90
11762;DHT22;5938;47.098;15.474;2023-03-18T04:50:45;-2.00;99.90
11762;DHT22;5938;47.098;15.474;2023-03-18T04:54:51;-2.20;99.90
11762;DHT22;5938;47.098;15.474;2023-03-18T04:58:55;-2.10;99.90
11762;DHT22;5938;47.098;15.474;2023-03-18T05:02:59;-2.00;99.90
11762;DHT22;5938;47.098;15.474;2023-03-18T05:07:04;-2.20;99.90
11762;DHT22;5938;47.098;15.474;2023-03-18T05:11:10;-2.30;99.90
11762;DHT22;5938;47.098;15.474;2023-03-18T05:15:13;-2.30;99.90
11762;DHT22;5938;47.098;15.474;2023-03-18T05:19:21;-2.40;99.90
11762;DHT22;5938;47.098;15.474;2023-03-18T05:23:27;-2.10;99.90
11762;DHT22;5938;47.098;15.474;2023-03-18T05:27:32;-2.10;99.90
11762;DHT22;5938;47.098;15.474;2023-03-18T05:31:35;-2.10;99.90
11762;DHT22;5938;47.098;15.474;2023-03-18T05:35:39;-2.10;99.90
11762;DHT22;5938;47.098;15.474;2023-03-18T05:39:44;-2.00;99.90
11762;DHT22;5938;47.098;15.474;2023-03-18T05:43:49;-2.00;99.90
11762;DHT22;5938;47.098;15.474;2023-03-18T05:47:52;-1.80;99.90
11762;DHT22;5938;47.098;15.474;2023-03-18T05:51:56;-1.90;99.90
11762;DHT22;5938;47.098;15.474;2023-03-18T05:55:59;-1.70;99.90
11762;DHT22;5938;47.098;15.474;2023-03-18T06:00:06;-1.70;99.90
11762;DHT22;5938;47.098;15.474;2023-03-18T06:04:09;-1.70;99.90
11762;DHT22;5938;47.098;15.474;2023-03-18T06:08:13;-1.50;99.90
11762;DHT22;5938;47.098;15.474;2023-03-18T06:12:18;-1.40;99.90
11762;DHT22;5938;47.098;15.474;2023-03-18T06:16:26;-1.40;99.90
11762;DHT22;5938;47.098;15.474;2023-03-18T06:20:30;-1.40;99.90
11762;DHT22;5938;47.098;15.474;2023-03-18T06:24:34;-1.60;99.90
11762;DHT22;5938;47.098;15.474;2023-03-18T06:28:38;-1.20;99.90
11762;DHT22;5938;47.098;15.474;2023-03-18T06:32:43;-1.00;99.90
11762;DHT22;5938;47.098;15.474;2023-03-18T06:36:47;-0.90;99.90
11762;DHT22;5938;47.098;15.474;2023-03-18T06:40:50;-0.70;99.90
11762;DHT22;5938;47.098;15.474;2023-03-18T06:44:53;-0.50;99.90
11762;DHT22;5938;47.098;15.474;2023-03-18T06:48:58;-0.40;99.90
11762;DHT22;5938;47.098;15.474;2023-03-18T06:53:03;-0.20;99.90
11762;DHT22;5938;47.098;15.474;2023-03-18T06:57:06;0.10;99.90
11762;DHT22;5938;47.098;15.474;2023-03-18T07:01:10;0.40;99.90
11762;DHT22;5938;47.098;15.474;2023-03-18T07:05:16;0.80;99.90
11762;DHT22;5938;47.098;15.474;2023-03-18T07:09:20;1.20;99.80
11762;DHT22;5938;47.098;15.474;2023-03-18T07:13:24;1.50;98.70
11762;DHT22;5938;47.098;15.474;2023-03-18T07:17:29;2.00;97.70
11762;DHT22;5938;47.098;15.474;2023-03-18T07:21:34;2.50;96.20
11762;DHT22;5938;47.098;15.474;2023-03-18T07:25:38;3.00;96.10
11762;DHT22;5938;47.098;15.474;2023-03-18T07:29:41;3.50;94.10
11762;DHT22;5938;47.098;15.474;2023-03-18T07:33:44;3.90;94.00
11762;DHT22;5938;47.098;15.474;2023-03-18T07:37:51;4.30;93.00
11762;DHT22;5938;47.098;15.474;2023-03-18T07:41:54;4.40;92.50
11762;DHT22;5938;47.098;15.474;2023-03-18T07:45:58;4.80;92.00
11762;DHT22;5938;47.098;15.474;2023-03-18T07:50:02;5.40;91.10
11762;DHT22;5938;47.098;15.474;2023-03-18T07:54:07;5.60;88.20
11762;DHT22;5938;47.098;15.474;2023-03-18T07:58:10;5.60;86.80
11762;DHT22;5938;47.098;15.474;2023-03-18T08:02:14;5.70;88.20
11762;DHT22;5938;47.098;15.474;2023-03-18T08:06:18;5.90;85.10
11762;DHT22;5938;47.098;15.474;2023-03-18T08:10:23;6.00;85.10
11762;DHT22;5938;47.098;15.474;2023-03-18T08:14:27;6.30;83.10
11762;DHT22;5938;47.098;15.474;2023-03-18T08:18:30;6.40;83.90
11762;DHT22;5938;47.098;15.474;2023-03-18T08:22:35;6.50;83.10
11762;DHT22;5938;47.098;15.474;2023-03-18T08:26:40;6.80;83.50
11762;DHT22;5938;47.098;15.474;2023-03-18T08:30:44;7.10;82.50
11762;DHT22;5938;47.098;15.474;2023-03-18T08:34:48;7.60;82.20
11762;DHT22;5938;47.098;15.474;2023-03-18T08:38:52;8.10;82.40
11762;DHT22;5938;47.098;15.474;2023-03-18T08:42:57;8.20;80.80
11762;DHT22;5938;47.098;15.474;2023-03-18T08:47:01;8.60;79.40
11762;DHT22;5938;47.098;15.474;2023-03-18T08:51:05;8.80;77.90
11762;DHT22;5938;47.098;15.474;2023-03-18T08:55:09;9.60;76.90
11762;DHT22;5938;47.098;15.474;2023-03-18T08:59:14;10.90;71.90
11762;DHT22;5938;47.098;15.474;2023-03-18T09:03:18;11.70;70.40
11762;DHT22;5938;47.098;15.474;2023-03-18T09:07:22;12.10;67.60
11762;DHT22;5938;47.098;15.474;2023-03-18T09:11:26;12.60;66.20
11762;DHT22;5938;47.098;15.474;2023-03-18T09:15:31;12.70;65.70
11762;DHT22;5938;47.098;15.474;2023-03-18T09:19:35;13.20;64.50
11762;DHT22;5938;47.098;15.474;2023-03-18T09:23:39;14.60;62.00
11762;DHT22;5938;47.098;15.474;2023-03-18T09:27:46;14.70;61.40
11762;DHT22;5938;47.098;15.474;2023-03-18T09:31:51;16.50;59.40
11762;DHT22;5938;47.098;15.474;2023-03-18T09:35:54;17.30;58.20
11762;DHT22;5938;47.098;15.474;2023-03-18T09:39:58;15.60;57.50
11762;DHT22;5938;47.098;15.474;2023-03-18T09:44:09;13.80;62.20
11762;DHT22;5938;47.098;15.474;2023-03-18T09:53:04;16.90;57.20
11762;DHT22;5938;47.098;15.474;2023-03-18T09:57:14;18.10;56.60
11762;DHT22;5938;47.098;15.474;2023-03-18T10:01:22;17.60;57.80
11762;DHT22;5938;47.098;15.474;2023-03-18T10:05:31;19.40;54.00
11762;DHT22;5938;47.098;15.474;2023-03-18T10:09:40;19.40;53.20
11762;DHT22;5938;47.098;15.474;2023-03-18T10:13:59;19.20;53.20
11762;DHT22;5938;47.098;15.474;2023-03-18T10:18:11;19.30;53.60
11762;DHT22;5938;47.098;15.474;2023-03-18T10:22:53;20.20;52.30
11762;DHT22;5938;47.098;15.474;2023-03-18T10:27:09;19.30;54.00
11762;DHT22;5938;47.098;15.474;2023-03-18T10:31:25;19.40;52.40
11762;DHT22;5938;47.098;15.474;2023-03-18T10:35:37;19.90;51.80
11762;DHT22;5938;47.098;15.474;2023-03-18T10:39:42;19.70;50.00
11762;DHT22;5938;47.098;15.474;2023-03-18T10:43:49;21.20;50.20
11762;DHT22;5938;47.098;15.474;2023-03-18T10:47:59;21.90;48.20
11762;DHT22;5938;47.098;15.474;2023-03-18T10:52:14;23.00;48.50
11762;DHT22;5938;47.098;15.474;2023-03-18T10:56:22;23.00;46.20
11762;DHT22;5938;47.098;15.474;2023-03-18T11:00:29;22.60;47.60
11762;DHT22;5938;47.098;15.474;2023-03-18T11:04:44;21.70;48.10
11762;DHT22;5938;47.098;15.474;2023-03-18T11:08:49;22.40;46.70
11762;DHT22;5938;47.098;15.474;2023-03-18T11:13:02;21.00;47.20
11762;DHT22;5938;47.098;15.474;2023-03-18T11:17:19;22.30;46.80
11762;DHT22;5938;47.098;15.474;2023-03-18T11:21:24;22.10;47.60
11762;DHT22;5938;47.098;15.474;2023-03-18T11:25:29;23.30;46.40
11762;DHT22;5938;47.098;15.474;2023-03-18T11:29:34;24.80;44.00
11762;DHT22;5938;47.098;15.474;2023-03-18T11:33:39;24.30;43.30
11762;DHT22;5938;47.098;15.474;2023-03-18T11:37:42;24.00;44.30
11762;DHT22;5938;47.098;15.474;2023-03-18T11:41:48;24.40;44.30
11762;DHT22;5938;47.098;15.474;2023-03-18T11:45:55;25.50;42.60
11762;DHT22;5938;47.098;15.474;2023-03-18T11:50:02;25.30;42.50
11762;DHT22;5938;47.098;15.474;2023-03-18T11:54:28;24.20;41.60
11762;DHT22;5938;47.098;15.474;2023-03-18T12:08:13;26.40;40.50
11762;DHT22;5938;47.098;15.474;2023-03-18T12:12:38;26.70;39.90
11762;DHT22;5938;47.098;15.474;2023-03-18T12:16:54;26.80;39.60
11762;DHT22;5938;47.098;15.474;2023-03-18T12:21:04;27.00;39.80
11762;DHT22;5938;47.098;15.474;2023-03-18T12:25:25;27.00;38.30
11762;DHT22;5938;47.098;15.474;2023-03-18T12:29:55;26.00;39.60
11762;DHT22;5938;47.098;15.474;2023-03-18T12:34:02;24.70;40.10
11762;DHT22;5938;47.098;15.474;2023-03-18T12:42:59;25.70;41.00
11762;DHT22;5938;47.098;15.474;2023-03-18T12:47:09;25.80;40.30
11762;DHT22;5938;47.098;15.474;2023-03-18T12:51:19;26.40;39.20
11762;DHT22;5938;47.098;15.474;2023-03-18T12:55:27;25.90;40.40
11762;DHT22;5938;47.098;15.474;2023-03-18T12:59:37;27.20;38.00
11762;DHT22;5938;47.098;15.474;2023-03-18T13:03:43;28.40;37.20
11762;DHT22;5938;47.098;15.474;2023-03-18T13:07:53;26.80;37.80
11762;DHT22;5938;47.098;15.474;2023-03-18T13:12:06;26.20;39.80
11762;DHT22;5938;47.098;15.474;2023-03-18T13:16:14;27.70;38.60
11762;DHT22;5938;47.098;15.474;2023-03-18T13:20:22;27.10;37.90
11762;DHT22;5938;47.098;15.474;2023-03-18T13:24:42;25.40;39.80
11762;DHT22;5938;47.098;15.474;2023-03-18T13:29:01;25.40;41.00
11762;DHT22;5938;47.098;15.474;2023-03-18T13:33:35;25.50;40.60
11762;DHT22;5938;47.098;15.474;2023-03-18T13:38:12;25.80;40.10
11762;DHT22;5938;47.098;15.474;2023-03-18T13:42:24;26.40;38.50
11762;DHT22;5938;47.098;15.474;2023-03-18T13:46:32;27.40;38.10
11762;DHT22;5938;47.098;15.474;2023-03-18T13:50:38;26.90;38.50
11762;DHT22;5938;47.098;15.474;2023-03-18T13:54:45;27.60;38.30
11762;DHT22;5938;47.098;15.474;2023-03-18T13:58:50;26.90;38.40
11762;DHT22;5938;47.098;15.474;2023-03-18T14:03:12;27.40;38.10
11762;DHT22;5938;47.098;15.474;2023-03-18T14:07:20;25.60;39.40
11762;DHT22;5938;47.098;15.474;2023-03-18T14:11:44;24.20;41.60
11762;DHT22;5938;47.098;15.474;2023-03-18T14:15:50;22.10;45.90
11762;DHT22;5938;47.098;15.474;2023-03-18T14:19:55;21.30;47.40
11762;DHT22;5938;47.098;15.474;2023-03-18T14:24:11;21.50;47.50
11762;DHT22;5938;47.098;15.474;2023-03-18T14:28:22;20.80;47.40
11762;DHT22;5938;47.098;15.474;2023-03-18T14:32:35;20.50;49.10
11762;DHT22;5938;47.098;15.474;2023-03-18T14:37:18;19.90;49.00
11762;DHT22;5938;47.098;15.474;2023-03-18T14:41:26;19.20;50.30
11762;DHT22;5938;47.098;15.474;2023-03-18T14:45:37;18.30;51.60
11762;DHT22;5938;47.098;15.474;2023-03-18T14:49:46;17.50;52.30
11762;DHT22;5938;47.098;15.474;2023-03-18T14:53:52;16.80;57.00
11762;DHT22;5938;47.098;15.474;2023-03-18T14:57:59;16.40;56.20
11762;DHT22;5938;47.098;15.474;2023-03-18T15:02:05;16.20;56.50
11762;DHT22;5938;47.098;15.474;2023-03-18T15:06:17;15.80;57.50
11762;DHT22;5938;47.098;15.474;2023-03-18T15:10:23;15.90;57.80
11762;DHT22;5938;47.098;15.474;2023-03-18T15:14:30;15.80;61.50
11762;DHT22;5938;47.098;15.474;2023-03-18T15:18:36;15.70;58.20
11762;DHT22;5938;47.098;15.474;2023-03-18T15:22:41;15.20;58.80
11762;DHT22;5938;47.098;15.474;2023-03-18T15:26:55;14.70;60.50
11762;DHT22;5938;47.098;15.474;2023-03-18T15:31:00;14.80;61.00
11762;DHT22;5938;47.098;15.474;2023-03-18T15:35:14;14.70;60.50
11762;DHT22;5938;47.098;15.474;2023-03-18T15:39:27;14.50;62.70
11762;DHT22;5938;47.098;15.474;2023-03-18T15:43:37;14.60;62.50
11762;DHT22;5938;47.098;15.474;2023-03-18T15:47:43;14.40;61.30
11762;DHT22;5938;47.098;15.474;2023-03-18T15:51:46;14.30;62.90
11762;DHT22;5938;47.098;15.474;2023-03-18T15:55:52;14.40;61.90
11762;DHT22;5938;47.098;15.474;2023-03-18T15:59:57;14.00;62.70
11762;DHT22;5938;47.098;15.474;2023-03-18T16:04:04;13.70;65.00
11762;DHT22;5938;47.098;15.474;2023-03-18T16:08:09;13.70;65.00
11762;DHT22;5938;47.098;15.474;2023-03-18T16:12:17;13.90;65.20
11762;DHT22;5938;47.098;15.474;2023-03-18T16:16:26;13.80;65.00
11762;DHT22;5938;47.098;15.474;2023-03-18T16:20:31;13.50;64.80
11762;DHT22;5938;47.098;15.474;2023-03-18T16:24:35;13.40;65.80
11762;DHT22;5938;47.098;15.474;2023-03-18T16:28:40;13.10;65.90
11762;DHT22;5938;47.098;15.474;2023-03-18T16:32:48;12.70;68.00
11762;DHT22;5938;47.098;15.474;2023-03-18T16:36:53;12.50;69.60
11762;DHT22;5938;47.098;15.474;2023-03-18T16:41:00;12.20;70.20
11762;DHT22;5938;47.098;15.474;2023-03-18T16:45:05;11.90;71.20
11762;DHT22;5938;47.098;15.474;2023-03-18T16:49:13;11.70;71.70
11762;DHT22;5938;47.098;15.474;2023-03-18T16:53:21;11.30;76.50
11762;DHT22;5938;47.098;15.474;2023-03-18T16:57:27;10.90;78.70
11762;DHT22;5938;47.098;15.474;2023-03-18T17:01:31;10.50;79.30
11762;DHT22;5938;47.098;15.474;2023-03-18T17:05:35;10.00;81.40
11762;DHT22;5938;47.098;15.474;2023-03-18T17:09:41;9.60;83.10
11762;DHT22;5938;47.098;15.474;2023-03-18T17:13:45;9.30;83.90
11762;DHT22;5938;47.098;15.474;2023-03-18T17:17:50;9.00;84.90
11762;DHT22;5938;47.098;15.474;2023-03-18T17:21:59;8.70;86.20
11762;DHT22;5938;47.098;15.474;2023-03-18T17:26:06;8.40;87.10
11762;DHT22;5938;47.098;15.474;2023-03-18T17:30:18;8.10;88.60
11762;DHT22;5938;47.098;15.474;2023-03-18T17:34:22;7.80;88.70
11762;DHT22;5938;47.098;15.474;2023-03-18T17:38:28;7.60;89.80
11762;DHT22;5938;47.098;15.474;2023-03-18T17:42:35;7.40;90.50
11762;DHT22;5938;47.098;15.474;2023-03-18T17:46:40;7.20;90.40
11762;DHT22;5938;47.098;15.474;2023-03-18T17:50:45;7.00;90.30
11762;DHT22;5938;47.098;15.474;2023-03-18T17:54:50;6.80;91.00
11762;DHT22;5938;47.098;15.474;2023-03-18T17:59:04;6.70;91.50
11762;DHT22;5938;47.098;15.474;2023-03-18T18:03:19;6.50;91.70
11762;DHT22;5938;47.098;15.474;2023-03-18T18:07:33;6.30;92.00
11762;DHT22;5938;47.098;15.474;2023-03-18T18:11:41;6.10;92.40
11762;DHT22;5938;47.098;15.474;2023-03-18T18:15:48;6.00;92.80
11762;DHT22;5938;47.098;15.474;2023-03-18T18:19:54;5.80;93.20
11762;DHT22;5938;47.098;15.474;2023-03-18T18:24:01;5.70;93.50
11762;DHT22;5938;47.098;15.474;2023-03-18T18:28:15;5.60;93.80
11762;DHT22;5938;47.098;15.474;2023-03-18T18:32:23;5.30;94.00
11762;DHT22;5938;47.098;15.474;2023-03-18T18:36:27;5.30;94.10
11762;DHT22;5938;47.098;15.474;2023-03-18T18:40:33;5.20;94.70
11762;DHT22;5938;47.098;15.474;2023-03-18T18:44:39;5.00;94.90
11762;DHT22;5938;47.098;15.474;2023-03-18T18:48:54;4.80;95.30
11762;DHT22;5938;47.098;15.474;2023-03-18T18:52:58;4.70;95.50
11762;DHT22;5938;47.098;15.474;2023-03-18T18:57:06;4.60;95.90
11762;DHT22;5938;47.098;15.474;2023-03-18T19:01:19;4.60;96.00
11762;DHT22;5938;47.098;15.474;2023-03-18T19:05:29;4.40;96.20
11762;DHT22;5938;47.098;15.474;2023-03-18T19:09:35;4.30;96.70
11762;DHT22;5938;47.098;15.474;2023-03-18T19:14:17;4.20;96.80
11762;DHT22;5938;47.098;15.474;2023-03-18T19:18:25;4.20;97.30
11762;DHT22;5938;47.098;15.474;2023-03-18T19:22:40;4.00;97.30
11762;DHT22;5938;47.098;15.474;2023-03-18T19:26:51;3.90;97.60
11762;DHT22;5938;47.098;15.474;2023-03-18T19:31:00;3.90;97.60
11762;DHT22;5938;47.098;15.474;2023-03-18T19:35:11;3.80;97.60
11762;DHT22;5938;47.098;15.474;2023-03-18T19:39:20;3.60;98.00
11762;DHT22;5938;47.098;15.474;2023-03-18T19:43:26;3.50;98.40
11762;DHT22;5938;47.098;15.474;2023-03-18T19:47:39;3.50;98.60
11762;DHT22;5938;47.098;15.474;2023-03-18T19:52:05;3.50;98.70
11762;DHT22;5938;47.098;15.474;2023-03-18T19:56:27;3.40;98.70
11762;DHT22;5938;47.098;15.474;2023-03-18T20:00:41;3.30;98.80
11762;DHT22;5938;47.098;15.474;2023-03-18T20:04:51;3.20;99.40
11762;DHT22;5938;47.098;15.474;2023-03-18T20:09:01;3.10;99.80
11762;DHT22;5938;47.098;15.474;2023-03-18T20:13:12;3.00;99.90
11762;DHT22;5938;47.098;15.474;2023-03-18T20:17:53;3.00;99.90
11762;DHT22;5938;47.098;15.474;2023-03-18T20:22:03;2.90;99.90
11762;DHT22;5938;47.098;15.474;2023-03-18T20:26:21;2.80;99.90
11762;DHT22;5938;47.098;15.474;2023-03-18T20:30:31;2.80;99.90
11762;DHT22;5938;47.098;15.474;2023-03-18T20:34:47;2.70;99.90
11762;DHT22;5938;47.098;15.474;2023-03-18T20:38:53;2.70;99.90
11762;DHT22;5938;47.098;15.474;2023-03-18T20:43:02;2.60;99.90
11762;DHT22;5938;47.098;15.474;2023-03-18T20:47:11;2.50;99.90
11762;DHT22;5938;47.098;15.474;2023-03-18T20:51:19;2.50;99.90
11762;DHT22;5938;47.098;15.474;2023-03-18T20:55:28;2.40;99.90
11762;DHT22;5938;47.098;15.474;2023-03-18T20:59:35;2.40;99.90
11762;DHT22;5938;47.098;15.474;2023-03-18T21:03:43;2.40;99.90
11762;DHT22;5938;47.098;15.474;2023-03-18T21:07:48;2.30;99.90
11762;DHT22;5938;47.098;15.474;2023-03-18T21:11:54;2.20;99.90
11762;DHT22;5938;47.098;15.474;2023-03-18T21:15:59;2.20;99.90
11762;DHT22;5938;47.098;15.474;2023-03-18T21:20:11;2.10;99.90
11762;DHT22;5938;47.098;15.474;2023-03-18T21:24:25;2.00;99.90
11762;DHT22;5938;47.098;15.474;2023-03-18T21:28:30;1.90;99.90
11762;DHT22;5938;47.098;15.474;2023-03-18T21:32:35;1.90;99.90
11762;DHT22;5938;47.098;15.474;2023-03-18T21:36:43;1.80;99.90
11762;DHT22;5938;47.098;15.474;2023-03-18T21:40:47;1.80;99.90
11762;DHT22;5938;47.098;15.474;2023-03-18T21:44:52;1.70;99.90
11762;DHT22;5938;47.098;15.474;2023-03-18T21:48:58;1.70;99.90
11762;DHT22;5938;47.098;15.474;2023-03-18T21:53:10;1.70;99.90
11762;DHT22;5938;47.098;15.474;2023-03-18T21:57:17;1.70;99.90
11762;DHT22;5938;47.098;15.474;2023-03-18T22:01:26;1.60;99.90
11762;DHT22;5938;47.098;15.474;2023-03-18T22:05:33;1.50;99.90
11762;DHT22;5938;47.098;15.474;2023-03-18T22:09:39;1.40;99.90
11762;DHT22;5938;47.098;15.474;2023-03-18T22:13:44;1.40;99.90
11762;DHT22;5938;47.098;15.474;2023-03-18T22:17:47;1.40;99.90
11762;DHT22;5938;47.098;15.474;2023-03-18T22:21:51;1.40;99.90
11762;DHT22;5938;47.098;15.474;2023-03-18T22:25:56;1.30;99.90
11762;DHT22;5938;47.098;15.474;2023-03-18T22:30:01;1.30;99.90
11762;DHT22;5938;47.098;15.474;2023-03-18T22:34:10;1.20;99.90
11762;DHT22;5938;47.098;15.474;2023-03-18T22:38:22;1.20;99.90
11762;DHT22;5938;47.098;15.474;2023-03-18T22:42:27;1.20;99.90
11762;DHT22;5938;47.098;15.474;2023-03-18T22:46:30;1.20;99.90
11762;DHT22;5938;47.098;15.474;2023-03-18T22:50:34;1.10;99.90
11762;DHT22;5938;47.098;15.474;2023-03-18T22:54:38;1.00;99.90
11762;DHT22;5938;47.098;15.474;2023-03-18T22:58:42;1.00;99.90
11762;DHT22;5938;47.098;15.474;2023-03-18T23:02:47;1.00;99.90
11762;DHT22;5938;47.098;15.474;2023-03-18T23:06:51;1.00;99.90
11762;DHT22;5938;47.098;15.474;2023-03-18T23:10:55;0.90;99.90
11762;DHT22;5938;47.098;15.474;2023-03-18T23:15:02;0.90;99.90
11762;DHT22;5938;47.098;15.474;2023-03-18T23:19:06;0.90;99.90
11762;DHT22;5938;47.098;15.474;2023-03-18T23:23:11;0.80;99.90
11762;DHT22;5938;47.098;15.474;2023-03-18T23:27:15;0.80;99.90
11762;DHT22;5938;47.098;15.474;2023-03-18T23:31:20;0.80;99.90
11762;DHT22;5938;47.098;15.474;2023-03-18T23:35:24;0.80;99.90
11762;DHT22;5938;47.098;15.474;2023-03-18T23:39:27;0.70;99.90
11762;DHT22;5938;47.098;15.474;2023-03-18T23:43:32;0.70;99.90
11762;DHT22;5938;47.098;15.474;2023-03-18T23:47:37;0.70;99.90
11762;DHT22;5938;47.098;15.474;2023-03-18T23:51:40;0.60;99.90
11762;DHT22;5938;47.098;15.474;2023-03-18T23:55:46;0.60;99.90
11762;DHT22;5938;47.098;15.474;2023-03-18T23:59:50;0.60;99.90
